Meteo Giornale » Osservazioni meteo Svizzera » Locarno

ore: 19:50 - Osservazioni Meteo Locarno
Lat. 46° 10' N Lon. 8° 53' E Alt. 600 metri s.l.m.

sereno Europe/Zurich

24 °C

Sereno

Temp. 24 Ore

18 °C

26 °C

Nord

3.7 Km/h

Dew point 22 °C

Umidità 88 %

Visibilità  10 Km

Il sole sorge alle ore 06:31

Il sole tramonta alle ore 20:23

Data e Ora Cielo e Fenomeni T °C DP °C Um. % Pres. hPa Vis. km Vento km/h
Oggi h: 19:50 sereno Sereno 24 22 88 1020 10 N 3.7
Oggi h: 19:20 sereno Sereno 25 19 69 1020 10 N 0
Oggi h: 18:50 sereno Sereno 25 18 65 1020 10 N 5.5
Oggi h: 17:50 sereno Sereno 26 19 65 1020 10 N 3.7
Oggi h: 17:20 sereno Sereno 26 17 57 1020 10 N 3.7
Oggi h: 16:50 sereno Sereno 26 19 65 1021 10 N 3.7
Oggi h: 16:20 molto_nuvoloso Molto Nuvoloso 25 19 69 1021 10 N 5.5
Oggi h: 15:50 molto_nuvoloso Molto Nuvoloso 25 19 69 1021 10 N 5.5
Oggi h: 15:20 molto_nuvoloso Molto Nuvoloso 25 18 65 1021 10 N 3.7
Oggi h: 14:50 molto_nuvoloso Molto Nuvoloso 25 18 65 1022 10 N 3.7
Oggi h: 14:20 molto_nuvoloso Molto Nuvoloso 24 18 69 1022 10 N 5.5
Oggi h: 13:20 poco_nuvoloso Poco Nuvoloso 24 17 64 1022 10 O 9.3
Oggi h: 12:50 poco_nuvoloso Poco Nuvoloso 24 18 69 1022 10 O/SO 9.3
Oggi h: 11:50 poco_nuvoloso Poco Nuvoloso 23 19 78 1023 10 O/SO 7.4
Oggi h: 11:20 molto_nuvoloso Molto Nuvoloso 24 18 69 1023 10 N 0
Oggi h: 10:50 molto_nuvoloso Molto Nuvoloso 22 19 83 1023 10 N 5.5
Oggi h: 10:20 molto_nuvoloso Molto Nuvoloso 21 20 94 1023 10 E/NE 7.4
Oggi h: 09:50 molto_nuvoloso Molto Nuvoloso 21 20 94 1023 10 E/NE 7.4
Oggi h: 09:20 molto_nuvoloso Molto Nuvoloso 19 19 100 1023 10 E/NE 7.4
Oggi h: 08:50 molto_nuvoloso Molto Nuvoloso 19 19 100 1023 10 E 7.4
Oggi h: 08:20 molto_nuvoloso Molto Nuvoloso 19 19 100 1023 10 N 1.8
Oggi h: 07:50 molto_nuvoloso Molto Nuvoloso 18 18 100 1023 9 N 0
Oggi h: 07:20 nuvoloso Nuvoloso 18 18 100 1023 10 N 5.5
Oggi h: 06:50 nuvoloso Nuvoloso 18 18 100 1023 9 N 5.5
Oggi h: 06:20 nuvoloso_piovaschi Debole Rovescio di Pioggia 18 18 100 1023 6 N 0
Oggi h: 05:50 nuvoloso_piovaschi Debole Rovescio di Pioggia 18 18 100 1023 9 N 3.7
Oggi h: 05:20 nuvoloso_piovaschi Debole Rovescio di Pioggia 18 18 100 1023 10 N 1.8
Oggi h: 04:50 coperto_pioggia Pioggia Debole 19 19 100 1023 10 NE 7.4
Oggi h: 04:20 coperto_pioggia Pioggia Debole 18 18 100 1022 10 NE 7.4
Oggi h: 03:50 nuvoloso_piovaschi Rovescio di Pioggia 19 19 100 1022 9 E/NE 14.8
Oggi h: 03:20 nuvoloso_piovaschi Rovescio di Pioggia 19 19 100 1022 2 E 18.5
Oggi h: 02:50 molto_nuvoloso Molto Nuvoloso 20 20 100 1021 10 N 3.7
Oggi h: 02:20 molto_nuvoloso Molto Nuvoloso 20 20 100 1021 10 N 7.4
Oggi h: 01:50 nuvoloso Nuvoloso 19 19 100 1021 10 N 3.7
Oggi h: 00:50 nuvoloso Nuvoloso 20 20 100 1021 10 N 0
Ieri h: 23:50 poco_nuvoloso Poco Nuvoloso 20 20 100 1021 10 N 0
Ieri h: 23:20 molto_nuvoloso Molto Nuvoloso 21 21 100 1021 10 N 0
Ieri h: 22:50 molto_nuvoloso Molto Nuvoloso 21 21 100 1021 10 N 0
Ieri h: 22:20 poco_nuvoloso Poco Nuvoloso 21 21 100 1020 10 N 3.7
Ieri h: 21:50 poco_nuvoloso Poco Nuvoloso 23 19 78 1020 10 N 3.7
Ieri h: 21:20 molto_nuvoloso Molto Nuvoloso 22 19 83 1019 10 N 5.5
Ieri h: 20:50 sereno Sereno 24 19 73 1019 10 E/SE 9.3